sensor_id;sensor_type;location;lat;lon;timestamp;pressure;altitude;pressure_sealevel;temperature;humidity
30421;BME280;17218;54.070;10.012;2023-11-19T00:01:26;100785.28;;;4.06;100.00
30421;BME280;17218;54.070;10.012;2023-11-19T00:03:52;100784.50;;;4.09;100.00
30421;BME280;17218;54.070;10.012;2023-11-19T00:06:19;100775.78;;;4.00;100.00
30421;BME280;17218;54.070;10.012;2023-11-19T00:08:44;100761.44;;;4.09;100.00
30421;BME280;17218;54.070;10.012;2023-11-19T00:11:12;100758.97;;;4.15;100.00
30421;BME280;17218;54.070;10.012;2023-11-19T00:13:40;100768.47;;;4.21;100.00
30421;BME280;17218;54.070;10.012;2023-11-19T00:16:07;100753.06;;;4.19;100.00
30421;BME280;17218;54.070;10.012;2023-11-19T00:18:34;100754.81;;;4.22;100.00
30421;BME280;17218;54.070;10.012;2023-11-19T00:21:01;100740.31;;;4.24;100.00
30421;BME280;17218;54.070;10.012;2023-11-19T00:23:28;100725.91;;;4.29;100.00
30421;BME280;17218;54.070;10.012;2023-11-19T00:25:55;100726.72;;;4.28;100.00
30421;BME280;17218;54.070;10.012;2023-11-19T00:28:22;100714.06;;;4.36;100.00
30421;BME280;17218;54.070;10.012;2023-11-19T00:30:49;100703.63;;;4.26;100.00
30421;BME280;17218;54.070;10.012;2023-11-19T00:33:15;100696.06;;;4.34;100.00
30421;BME280;17218;54.070;10.012;2023-11-19T00:35:42;100682.53;;;4.41;100.00
30421;BME280;17218;54.070;10.012;2023-11-19T00:38:09;100670.28;;;4.26;100.00
30421;BME280;17218;54.070;10.012;2023-11-19T00:40:35;100657.41;;;4.23;100.00
30421;BME280;17218;54.070;10.012;2023-11-19T00:43:02;100660.97;;;4.32;100.00
30421;BME280;17218;54.070;10.012;2023-11-19T00:45:30;100659.16;;;4.26;100.00
30421;BME280;17218;54.070;10.012;2023-11-19T00:47:56;100659.13;;;4.24;100.00
30421;BME280;17218;54.070;10.012;2023-11-19T00:50:24;100649.84;;;4.31;100.00
30421;BME280;17218;54.070;10.012;2023-11-19T00:52:51;100644.66;;;4.28;100.00
30421;BME280;17218;54.070;10.012;2023-11-19T00:55:17;100644.66;;;4.28;100.00
30421;BME280;17218;54.070;10.012;2023-11-19T00:57:44;100638.75;;;4.31;100.00
30421;BME280;17218;54.070;10.012;2023-11-19T01:00:11;100645.56;;;4.32;100.00
30421;BME280;17218;54.070;10.012;2023-11-19T01:02:44;100630.19;;;4.32;100.00
30421;BME280;17218;54.070;10.012;2023-11-19T01:05:11;100596.94;;;4.36;100.00
30421;BME280;17218;54.070;10.012;2023-11-19T01:07:40;100612.34;;;4.38;100.00
30421;BME280;17218;54.070;10.012;2023-11-19T01:10:07;100597.91;;;4.45;100.00
30421;BME280;17218;54.070;10.012;2023-11-19T01:12:33;100585.06;;;4.43;100.00
30421;BME280;17218;54.070;10.012;2023-11-19T01:15:00;100581.81;;;4.55;100.00
30421;BME280;17218;54.070;10.012;2023-11-19T01:17:27;100573.28;;;4.55;100.00
30421;BME280;17218;54.070;10.012;2023-11-19T01:19:55;100549.97;;;4.42;100.00
30421;BME280;17218;54.070;10.012;2023-11-19T01:22:21;100551.75;;;4.46;100.00
30421;BME280;17218;54.070;10.012;2023-11-19T01:24:48;100539.72;;;4.42;100.00
30421;BME280;17218;54.070;10.012;2023-11-19T01:27:15;100529.38;;;4.36;100.00
30421;BME280;17218;54.070;10.012;2023-11-19T01:29:41;100520.16;;;4.47;100.00
30421;BME280;17218;54.070;10.012;2023-11-19T01:32:08;100518.50;;;4.51;100.00
30421;BME280;17218;54.070;10.012;2023-11-19T01:34:34;100507.34;;;4.49;100.00
30421;BME280;17218;54.070;10.012;2023-11-19T01:37:02;100504.81;;;4.53;100.00
30421;BME280;17218;54.070;10.012;2023-11-19T01:39:29;100501.41;;;4.53;100.00
30421;BME280;17218;54.070;10.012;2023-11-19T01:41:55;100495.31;;;4.46;100.00
30421;BME280;17218;54.070;10.012;2023-11-19T01:44:22;100475.56;;;4.39;100.00
30421;BME280;17218;54.070;10.012;2023-11-19T01:46:48;100473.91;;;4.44;100.00
30421;BME280;17218;54.070;10.012;2023-11-19T01:49:15;100475.72;;;4.50;100.00
30421;BME280;17218;54.070;10.012;2023-11-19T01:51:42;100452.69;;;4.53;100.00
30421;BME280;17218;54.070;10.012;2023-11-19T01:54:10;100453.53;;;4.55;100.00
30421;BME280;17218;54.070;10.012;2023-11-19T01:56:38;100459.56;;;4.59;100.00
30421;BME280;17218;54.070;10.012;2023-11-19T01:59:07;100446.84;;;4.67;100.00
30421;BME280;17218;54.070;10.012;2023-11-19T02:01:35;100457.97;;;4.67;100.00
30421;BME280;17218;54.070;10.012;2023-11-19T02:04:05;100447.72;;;4.67;100.00
30421;BME280;17218;54.070;10.012;2023-11-19T02:06:32;100438.22;;;4.61;100.00
30421;BME280;17218;54.070;10.012;2023-11-19T02:08:59;100429.69;;;4.62;100.00
30421;BME280;17218;54.070;10.012;2023-11-19T02:11:29;100429.72;;;4.64;100.00
30421;BME280;17218;54.070;10.012;2023-11-19T02:13:55;100428.06;;;4.68;100.00
30421;BME280;17218;54.070;10.012;2023-11-19T02:16:22;100422.94;;;4.71;100.00
30421;BME280;17218;54.070;10.012;2023-11-19T02:18:48;100426.41;;;4.73;100.00
30421;BME280;17218;54.070;10.012;2023-11-19T02:21:15;100417.03;;;4.76;100.00
30421;BME280;17218;54.070;10.012;2023-11-19T02:23:43;100411.06;;;4.79;100.00
30421;BME280;17218;54.070;10.012;2023-11-19T02:26:13;100404.28;;;4.84;100.00
30421;BME280;17218;54.070;10.012;2023-11-19T02:28:42;100389.75;;;4.86;100.00
30421;BME280;17218;54.070;10.012;2023-11-19T02:31:09;100388.16;;;4.96;100.00
30421;BME280;17218;54.070;10.012;2023-11-19T02:33:36;100388.91;;;4.87;100.00
30421;BME280;17218;54.070;10.012;2023-11-19T02:36:03;100376.84;;;4.80;100.00
30421;BME280;17218;54.070;10.012;2023-11-19T02:38:32;100379.34;;;4.75;100.00
30421;BME280;17218;54.070;10.012;2023-11-19T02:40:59;100378.53;;;4.76;100.00
30421;BME280;17218;54.070;10.012;2023-11-19T02:43:27;100374.28;;;4.79;100.00
30421;BME280;17218;54.070;10.012;2023-11-19T02:45:57;100356.38;;;4.85;100.00
30421;BME280;17218;54.070;10.012;2023-11-19T02:48:24;100352.06;;;4.81;100.00
30421;BME280;17218;54.070;10.012;2023-11-19T02:50:50;100343.53;;;4.86;100.00
30421;BME280;17218;54.070;10.012;2023-11-19T02:53:17;100341.03;;;4.89;100.00
30421;BME280;17218;54.070;10.012;2023-11-19T02:55:47;100330.66;;;4.80;100.00
30421;BME280;17218;54.070;10.012;2023-11-19T02:58:15;100329.88;;;4.87;100.00
30421;BME280;17218;54.070;10.012;2023-11-19T03:00:48;100320.44;;;4.85;100.00
30421;BME280;17218;54.070;10.012;2023-11-19T03:03:23;100317.97;;;4.96;100.00
30421;BME280;17218;54.070;10.012;2023-11-19T03:05:54;100303.34;;;4.85;100.00
30421;BME280;17218;54.070;10.012;2023-11-19T03:08:20;100307.66;;;4.91;100.00
30421;BME280;17218;54.070;10.012;2023-11-19T03:10:47;100293.97;;;4.91;100.00
30421;BME280;17218;54.070;10.012;2023-11-19T03:13:14;100289.63;;;4.83;100.00
30421;BME280;17218;54.070;10.012;2023-11-19T03:15:42;100276.75;;;4.77;100.00
30421;BME280;17218;54.070;10.012;2023-11-19T03:18:08;100265.66;;;4.81;100.00
30421;BME280;17218;54.070;10.012;2023-11-19T03:20:36;100267.41;;;4.88;100.00
30421;BME280;17218;54.070;10.012;2023-11-19T03:23:03;100269.16;;;4.89;100.00
30421;BME280;17218;54.070;10.012;2023-11-19T03:25:29;100259.75;;;4.92;100.00
30421;BME280;17218;54.070;10.012;2023-11-19T03:27:59;100246.06;;;4.91;100.00
30421;BME280;17218;54.070;10.012;2023-11-19T03:30:27;100243.47;;;4.89;100.00
30421;BME280;17218;54.070;10.012;2023-11-19T03:32:54;100248.72;;;5.04;100.00
30421;BME280;17218;54.070;10.012;2023-11-19T03:35:21;100241.81;;;4.93;100.00
30421;BME280;17218;54.070;10.012;2023-11-19T03:37:49;100241.75;;;4.90;100.00
30421;BME280;17218;54.070;10.012;2023-11-19T03:40:16;100231.56;;;4.98;100.00
30421;BME280;17218;54.070;10.012;2023-11-19T03:42:44;100228.13;;;4.96;100.00
30421;BME280;17218;54.070;10.012;2023-11-19T03:45:10;100211.00;;;4.96;100.00
30421;BME280;17218;54.070;10.012;2023-11-19T03:47:37;100215.25;;;4.88;100.00
30421;BME280;17218;54.070;10.012;2023-11-19T03:50:05;100218.69;;;4.93;100.00
30421;BME280;17218;54.070;10.012;2023-11-19T03:52:32;100215.41;;;5.08;100.00
30421;BME280;17218;54.070;10.012;2023-11-19T03:55:00;100208.50;;;5.06;100.00
30421;BME280;17218;54.070;10.012;2023-11-19T03:57:27;100205.94;;;5.06;100.00
30421;BME280;17218;54.070;10.012;2023-11-19T03:59:53;100201.75;;;5.17;100.00
30421;BME280;17218;54.070;10.012;2023-11-19T04:02:20;100197.50;;;5.21;100.00
30421;BME280;17218;54.070;10.012;2023-11-19T04:04:47;100197.50;;;5.22;100.00
30421;BME280;17218;54.070;10.012;2023-11-19T04:07:14;100191.47;;;5.16;100.00
30421;BME280;17218;54.070;10.012;2023-11-19T04:09:40;100183.78;;;5.20;100.00
30421;BME280;17218;54.070;10.012;2023-11-19T04:12:08;100175.25;;;5.26;100.00
30421;BME280;17218;54.070;10.012;2023-11-19T04:14:36;100182.09;;;5.22;100.00
30421;BME280;17218;54.070;10.012;2023-11-19T04:17:03;100176.06;;;5.20;100.00
30421;BME280;17218;54.070;10.012;2023-11-19T04:19:29;100168.38;;;5.17;100.00
30421;BME280;17218;54.070;10.012;2023-11-19T04:21:57;100174.44;;;5.30;100.00
30421;BME280;17218;54.070;10.012;2023-11-19T04:24:24;100169.34;;;5.38;100.00
30421;BME280;17218;54.070;10.012;2023-11-19T04:26:51;100165.09;;;5.43;100.00
30421;BME280;17218;54.070;10.012;2023-11-19T04:29:19;100155.63;;;5.41;100.00
30421;BME280;17218;54.070;10.012;2023-11-19T04:31:45;100146.22;;;5.40;100.00
30421;BME280;17218;54.070;10.012;2023-11-19T04:34:12;100158.22;;;5.44;100.00
30421;BME280;17218;54.070;10.012;2023-11-19T04:36:39;100143.66;;;5.46;100.00
30421;BME280;17218;54.070;10.012;2023-11-19T04:39:05;100142.00;;;5.54;100.00
30421;BME280;17218;54.070;10.012;2023-11-19T04:41:34;100130.00;;;5.52;100.00
30421;BME280;17218;54.070;10.012;2023-11-19T04:44:01;100136.88;;;5.56;100.00
30421;BME280;17218;54.070;10.012;2023-11-19T04:46:29;100114.56;;;5.55;100.00
30421;BME280;17218;54.070;10.012;2023-11-19T04:48:55;100124.88;;;5.58;100.00
30421;BME280;17218;54.070;10.012;2023-11-19T04:51:22;100106.03;;;5.54;100.00
30421;BME280;17218;54.070;10.012;2023-11-19T04:53:48;100098.31;;;5.57;100.00
30421;BME280;17218;54.070;10.012;2023-11-19T04:56:15;100100.91;;;5.54;100.00
30421;BME280;17218;54.070;10.012;2023-11-19T04:58:44;100106.91;;;5.58;100.00
30421;BME280;17218;54.070;10.012;2023-11-19T05:01:13;100096.59;;;5.48;100.00
30421;BME280;17218;54.070;10.012;2023-11-19T05:03:42;100089.78;;;5.65;100.00
30421;BME280;17218;54.070;10.012;2023-11-19T05:06:08;100085.53;;;5.75;100.00
30421;BME280;17218;54.070;10.012;2023-11-19T05:08:35;100083.78;;;5.63;100.00
30421;BME280;17218;54.070;10.012;2023-11-19T05:11:02;100077.78;;;5.59;100.00
30421;BME280;17218;54.070;10.012;2023-11-19T05:13:29;100077.78;;;5.62;100.00
30421;BME280;17218;54.070;10.012;2023-11-19T05:15:55;100072.66;;;5.71;100.00
30421;BME280;17218;54.070;10.012;2023-11-19T05:18:22;100081.25;;;5.81;100.00
30421;BME280;17218;54.070;10.012;2023-11-19T05:20:50;100070.97;;;5.94;100.00
30421;BME280;17218;54.070;10.012;2023-11-19T05:23:16;100063.28;;;5.97;100.00
30421;BME280;17218;54.070;10.012;2023-11-19T05:25:42;100064.16;;;6.07;100.00
30421;BME280;17218;54.070;10.012;2023-11-19T05:28:10;100054.69;;;6.00;100.00
30421;BME280;17218;54.070;10.012;2023-11-19T05:30:39;100058.16;;;6.16;100.00
30421;BME280;17218;54.070;10.012;2023-11-19T05:33:06;100055.63;;;6.27;100.00
30421;BME280;17218;54.070;10.012;2023-11-19T05:35:34;100053.03;;;6.38;100.00
30421;BME280;17218;54.070;10.012;2023-11-19T05:38:02;100040.13;;;6.46;100.00
30421;BME280;17218;54.070;10.012;2023-11-19T05:40:28;100048.72;;;6.46;100.00
30421;BME280;17218;54.070;10.012;2023-11-19T05:42:55;100047.00;;;6.47;100.00
30421;BME280;17218;54.070;10.012;2023-11-19T05:45:21;100054.69;;;6.62;100.00
30421;BME280;17218;54.070;10.012;2023-11-19T05:47:48;100041.78;;;6.72;100.00
30421;BME280;17218;54.070;10.012;2023-11-19T05:50:14;100044.38;;;6.84;100.00
30421;BME280;17218;54.070;10.012;2023-11-19T05:52:41;100044.31;;;6.92;100.00
30421;BME280;17218;54.070;10.012;2023-11-19T05:55:09;100040.88;;;6.96;100.00
30421;BME280;17218;54.070;10.012;2023-11-19T05:57:36;100038.25;;;7.09;100.00
30421;BME280;17218;54.070;10.012;2023-11-19T06:00:03;100035.63;;;7.16;100.00
30421;BME280;17218;54.070;10.012;2023-11-19T06:02:33;100039.88;;;7.25;100.00
30421;BME280;17218;54.070;10.012;2023-11-19T06:04:59;100037.28;;;7.32;100.00
30421;BME280;17218;54.070;10.012;2023-11-19T06:07:26;100028.69;;;7.37;100.00
30421;BME280;17218;54.070;10.012;2023-11-19T06:09:53;100022.63;;;7.40;100.00
30421;BME280;17218;54.070;10.012;2023-11-19T06:12:21;100031.22;;;7.47;100.00
30421;BME280;17218;54.070;10.012;2023-11-19T06:14:47;100022.63;;;7.45;100.00
30421;BME280;17218;54.070;10.012;2023-11-19T06:17:14;100021.72;;;7.52;100.00
30421;BME280;17218;54.070;10.012;2023-11-19T06:19:40;100025.97;;;7.55;100.00
30421;BME280;17218;54.070;10.012;2023-11-19T06:22:07;100023.34;;;7.64;100.00
30421;BME280;17218;54.070;10.012;2023-11-19T06:24:33;100026.72;;;7.74;100.00
30421;BME280;17218;54.070;10.012;2023-11-19T06:27:00;100026.69;;;7.82;100.00
30421;BME280;17218;54.070;10.012;2023-11-19T06:29:27;100037.75;;;7.95;100.00
30421;BME280;17218;54.070;10.012;2023-11-19T06:31:54;100031.72;;;7.97;100.00
30421;BME280;17218;54.070;10.012;2023-11-19T06:34:20;100031.66;;;8.05;100.00
30421;BME280;17218;54.070;10.012;2023-11-19T06:36:47;100036.75;;;8.13;100.00
30421;BME280;17218;54.070;10.012;2023-11-19T06:39:13;100033.28;;;8.19;100.00
30421;BME280;17218;54.070;10.012;2023-11-19T06:41:44;100034.88;;;8.31;100.00
30421;BME280;17218;54.070;10.012;2023-11-19T06:44:11;100030.53;;;8.38;100.00
30421;BME280;17218;54.070;10.012;2023-11-19T06:46:39;100029.59;;;8.45;100.00
30421;BME280;17218;54.070;10.012;2023-11-19T06:49:05;100037.25;;;8.57;100.00
30421;BME280;17218;54.070;10.012;2023-11-19T06:51:33;100048.31;;;8.67;100.00
30421;BME280;17218;54.070;10.012;2023-11-19T06:54:00;100039.59;;;8.78;100.00
30421;BME280;17218;54.070;10.012;2023-11-19T06:56:26;100043.75;;;8.91;100.00
30421;BME280;17218;54.070;10.012;2023-11-19T06:58:53;100041.13;;;8.96;100.00
30421;BME280;17218;54.070;10.012;2023-11-19T07:01:19;100041.00;;;9.05;100.00
30421;BME280;17218;54.070;10.012;2023-11-19T07:03:47;100049.44;;;9.20;100.00
30421;BME280;17218;54.070;10.012;2023-11-19T07:06:14;100049.38;;;9.26;100.00
30421;BME280;17218;54.070;10.012;2023-11-19T07:08:41;100050.09;;;9.36;100.00
30421;BME280;17218;54.070;10.012;2023-11-19T07:11:10;100046.47;;;9.50;100.00
30421;BME280;17218;54.070;10.012;2023-11-19T07:13:37;100041.16;;;9.61;100.00
30421;BME280;17218;54.070;10.012;2023-11-19T07:16:04;100041.88;;;9.69;100.00
30421;BME280;17218;54.070;10.012;2023-11-19T07:18:31;100048.63;;;9.80;100.00
30421;BME280;17218;54.070;10.012;2023-11-19T07:21:01;100051.97;;;9.86;100.00
30421;BME280;17218;54.070;10.012;2023-11-19T07:23:28;100057.00;;;9.96;100.00
30421;BME280;17218;54.070;10.012;2023-11-19T07:25:55;100060.34;;;10.02;100.00
30421;BME280;17218;54.070;10.012;2023-11-19T07:28:21;100064.56;;;10.08;100.00
30421;BME280;17218;54.070;10.012;2023-11-19T07:30:48;100060.16;;;10.13;100.00
30421;BME280;17218;54.070;10.012;2023-11-19T07:33:14;100072.06;;;10.25;100.00
30421;BME280;17218;54.070;10.012;2023-11-19T07:35:42;100061.66;;;10.29;100.00
30421;BME280;17218;54.070;10.012;2023-11-19T07:38:11;100068.50;;;10.33;100.00
30421;BME280;17218;54.070;10.012;2023-11-19T07:40:38;100063.13;;;10.44;100.00
30421;BME280;17218;54.070;10.012;2023-11-19T07:43:04;100066.50;;;10.49;100.00
30421;BME280;17218;54.070;10.012;2023-11-19T07:45:32;100069.91;;;10.53;100.00
30421;BME280;17218;54.070;10.012;2023-11-19T07:47:59;100069.16;;;10.44;100.00
30421;BME280;17218;54.070;10.012;2023-11-19T07:50:26;100064.81;;;10.48;100.00
30421;BME280;17218;54.070;10.012;2023-11-19T07:52:53;100055.16;;;10.56;100.00
30421;BME280;17218;54.070;10.012;2023-11-19T07:55:21;100069.06;;;10.50;100.00
30421;BME280;17218;54.070;10.012;2023-11-19T07:57:47;100070.81;;;10.50;100.00
30421;BME280;17218;54.070;10.012;2023-11-19T08:00:14;100074.22;;;10.54;100.00
30421;BME280;17218;54.070;10.012;2023-11-19T08:02:41;100075.81;;;10.61;100.00
30421;BME280;17218;54.070;10.012;2023-11-19T08:05:08;100064.47;;;10.68;100.00
30421;BME280;17218;54.070;10.012;2023-11-19T08:07:35;100074.06;;;10.63;100.00
30421;BME280;17218;54.070;10.012;2023-11-19T08:10:01;100069.69;;;10.64;100.00
30421;BME280;17218;54.070;10.012;2023-11-19T08:12:31;100072.19;;;10.70;100.00
30421;BME280;17218;54.070;10.012;2023-11-19T08:15:00;100075.59;;;10.72;100.00
30421;BME280;17218;54.070;10.012;2023-11-19T08:17:26;100060.09;;;10.70;100.00
30421;BME280;17218;54.070;10.012;2023-11-19T08:19:53;100067.88;;;10.70;100.00
30421;BME280;17218;54.070;10.012;2023-11-19T08:22:19;100071.13;;;10.80;100.00
30421;BME280;17218;54.070;10.012;2023-11-19T08:24:47;100065.72;;;10.91;100.00
30421;BME280;17218;54.070;10.012;2023-11-19T08:27:14;100065.00;;;10.84;100.00
30421;BME280;17218;54.070;10.012;2023-11-19T08:29:42;100058.03;;;10.88;100.00
30421;BME280;17218;54.070;10.012;2023-11-19T08:32:08;100079.59;;;10.90;100.00
30421;BME280;17218;54.070;10.012;2023-11-19T08:34:36;100062.38;;;10.86;100.00
30421;BME280;17218;54.070;10.012;2023-11-19T08:37:03;100074.63;;;10.79;100.00
30421;BME280;17218;54.070;10.012;2023-11-19T08:39:29;100070.91;;;10.91;100.00
30421;BME280;17218;54.070;10.012;2023-11-19T08:41:56;100074.91;;;11.08;100.00
30421;BME280;17218;54.070;10.012;2023-11-19T08:44:23;100078.53;;;10.99;100.00
30421;BME280;17218;54.070;10.012;2023-11-19T08:46:52;100076.69;;;11.07;100.00
30421;BME280;17218;54.070;10.012;2023-11-19T08:49:18;100074.88;;;11.09;100.00
30421;BME280;17218;54.070;10.012;2023-11-19T08:51:45;100074.69;;;11.19;100.00
30421;BME280;17218;54.070;10.012;2023-11-19T08:54:12;100066.09;;;11.18;100.00
30421;BME280;17218;54.070;10.012;2023-11-19T08:56:39;100061.06;;;11.11;100.00
30421;BME280;17218;54.070;10.012;2023-11-19T08:59:05;100071.34;;;11.14;100.00
30421;BME280;17218;54.070;10.012;2023-11-19T09:01:32;100067.81;;;11.18;100.00
30421;BME280;17218;54.070;10.012;2023-11-19T09:04:00;100068.75;;;11.14;100.00
30421;BME280;17218;54.070;10.012;2023-11-19T09:06:26;100062.78;;;11.10;100.00
30421;BME280;17218;54.070;10.012;2023-11-19T09:08:53;100067.03;;;11.14;100.00
30421;BME280;17218;54.070;10.012;2023-11-19T09:11:23;100077.22;;;11.24;100.00
30421;BME280;17218;54.070;10.012;2023-11-19T09:13:50;100064.16;;;11.27;100.00
30421;BME280;17218;54.070;10.012;2023-11-19T09:16:16;100071.56;;;11.03;100.00
30421;BME280;17218;54.070;10.012;2023-11-19T09:18:43;100074.25;;;10.98;100.00
30421;BME280;17218;54.070;10.012;2023-11-19T09:21:11;100082.00;;;11.00;100.00
30421;BME280;17218;54.070;10.012;2023-11-19T09:23:38;100083.81;;;10.96;100.00
30421;BME280;17218;54.070;10.012;2023-11-19T09:26:05;100085.47;;;10.98;100.00
30421;BME280;17218;54.070;10.012;2023-11-19T09:28:32;100085.50;;;10.97;100.00
30421;BME280;17218;54.070;10.012;2023-11-19T09:30:58;100097.78;;;10.87;100.00
30421;BME280;17218;54.070;10.012;2023-11-19T09:33:25;100106.47;;;10.84;100.00
30421;BME280;17218;54.070;10.012;2023-11-19T09:35:51;100106.38;;;10.89;100.00
30421;BME280;17218;54.070;10.012;2023-11-19T09:38:19;100098.72;;;10.83;100.00
30421;BME280;17218;54.070;10.012;2023-11-19T09:40:46;100104.69;;;10.87;100.00
30421;BME280;17218;54.070;10.012;2023-11-19T09:43:13;100108.97;;;10.89;100.00
30421;BME280;17218;54.070;10.012;2023-11-19T09:45:48;100102.97;;;10.87;100.00
30421;BME280;17218;54.070;10.012;2023-11-19T09:48:16;100110.78;;;10.84;100.00
30421;BME280;17218;54.070;10.012;2023-11-19T09:50:44;100115.06;;;10.87;100.00
30421;BME280;17218;54.070;10.012;2023-11-19T09:53:10;100108.16;;;10.87;100.00
30421;BME280;17218;54.070;10.012;2023-11-19T09:55:38;100103.81;;;10.88;100.00
30421;BME280;17218;54.070;10.012;2023-11-19T09:58:05;100121.34;;;10.73;100.00
30421;BME280;17218;54.070;10.012;2023-11-19T10:00:33;100114.44;;;10.73;100.00
30421;BME280;17218;54.070;10.012;2023-11-19T10:03:00;100107.47;;;10.77;100.00
30421;BME280;17218;54.070;10.012;2023-11-19T10:05:26;100127.28;;;10.78;100.00
30421;BME280;17218;54.070;10.012;2023-11-19T10:07:53;100122.88;;;10.85;100.00
30421;BME280;17218;54.070;10.012;2023-11-19T10:10:21;100115.75;;;10.95;100.00
30421;BME280;17218;54.070;10.012;2023-11-19T10:12:50;100128.78;;;10.92;100.00
30421;BME280;17218;54.070;10.012;2023-11-19T10:15:20;100124.69;;;10.80;100.00
30421;BME280;17218;54.070;10.012;2023-11-19T10:17:47;100121.31;;;10.76;100.00
30421;BME280;17218;54.070;10.012;2023-11-19T10:20:14;100122.94;;;10.80;100.00
30421;BME280;17218;54.070;10.012;2023-11-19T10:22:40;100115.75;;;10.95;100.00
30421;BME280;17218;54.070;10.012;2023-11-19T10:25:21;100119.25;;;10.94;100.00
30421;BME280;17218;54.070;10.012;2023-11-19T10:27:49;100126.72;;;11.11;100.00
30421;BME280;17218;54.070;10.012;2023-11-19T10:30:18;100115.38;;;11.15;100.00
30421;BME280;17218;54.070;10.012;2023-11-19T10:32:44;100118.88;;;11.14;100.00
30421;BME280;17218;54.070;10.012;2023-11-19T10:35:11;100117.81;;;11.23;100.00
30421;BME280;17218;54.070;10.012;2023-11-19T10:37:38;100113.28;;;11.35;100.00
30421;BME280;17218;54.070;10.012;2023-11-19T10:40:07;100107.97;;;11.39;100.00
30421;BME280;17218;54.070;10.012;2023-11-19T10:42:35;100102.81;;;11.39;100.00
30421;BME280;17218;54.070;10.012;2023-11-19T10:45:04;100112.16;;;11.48;100.00
30421;BME280;17218;54.070;10.012;2023-11-19T10:47:31;100105.16;;;11.50;100.00
30421;BME280;17218;54.070;10.012;2023-11-19T10:49:59;100098.28;;;11.49;100.00
30421;BME280;17218;54.070;10.012;2023-11-19T10:52:27;100093.03;;;11.52;100.00
30421;BME280;17218;54.070;10.012;2023-11-19T10:54:56;100094.66;;;11.56;100.00
30421;BME280;17218;54.070;10.012;2023-11-19T10:57:29;100101.56;;;11.57;100.00
30421;BME280;17218;54.070;10.012;2023-11-19T11:00:04;100098.31;;;11.48;100.00
30421;BME280;17218;54.070;10.012;2023-11-19T11:02:40;100100.94;;;11.46;100.00
30421;BME280;17218;54.070;10.012;2023-11-19T11:05:07;100101.00;;;11.43;100.00
30421;BME280;17218;54.070;10.012;2023-11-19T11:07:34;100108.88;;;11.38;100.00
30421;BME280;17218;54.070;10.012;2023-11-19T11:10:01;100103.69;;;11.38;100.00
30421;BME280;17218;54.070;10.012;2023-11-19T11:12:30;100113.66;;;11.16;100.00
30421;BME280;17218;54.070;10.012;2023-11-19T11:14:58;100111.97;;;11.15;100.00
30421;BME280;17218;54.070;10.012;2023-11-19T11:17:28;100108.56;;;11.09;100.00
30421;BME280;17218;54.070;10.012;2023-11-19T11:19:54;100119.75;;;11.13;100.00
30421;BME280;17218;54.070;10.012;2023-11-19T11:22:22;100113.47;;;11.25;100.00
30421;BME280;17218;54.070;10.012;2023-11-19T11:25:08;100118.47;;;11.35;100.00
30421;BME280;17218;54.070;10.012;2023-11-19T11:28:13;100118.53;;;11.30;100.00
30421;BME280;17218;54.070;10.012;2023-11-19T11:30:53;100120.44;;;11.21;100.00
30421;BME280;17218;54.070;10.012;2023-11-19T11:33:34;100110.91;;;11.24;100.00
30421;BME280;17218;54.070;10.012;2023-11-19T11:36:13;100119.63;;;11.19;100.00
30421;BME280;17218;54.070;10.012;2023-11-19T11:38:40;100113.63;;;11.17;100.00
30421;BME280;17218;54.070;10.012;2023-11-19T11:41:18;100117.09;;;11.16;100.00
30421;BME280;17218;54.070;10.012;2023-11-19T11:43:46;100117.75;;;11.28;100.00
30421;BME280;17218;54.070;10.012;2023-11-19T11:49:24;100107.94;;;11.42;100.00
30421;BME280;17218;54.070;10.012;2023-11-19T11:52:01;100107.84;;;11.47;100.00
30421;BME280;17218;54.070;10.012;2023-11-19T11:54:29;100098.81;;;11.23;100.00
30421;BME280;17218;54.070;10.012;2023-11-19T11:57:03;100098.81;;;11.23;100.00
30421;BME280;17218;54.070;10.012;2023-11-19T11:59:36;100114.69;;;11.07;100.00
30421;BME280;17218;54.070;10.012;2023-11-19T12:02:03;100111.97;;;11.15;100.00
30421;BME280;17218;54.070;10.012;2023-11-19T12:04:31;100112.41;;;10.90;100.00
30421;BME280;17218;54.070;10.012;2023-11-19T12:07:04;100121.63;;;11.05;100.00
30421;BME280;17218;54.070;10.012;2023-11-19T12:09:31;100121.56;;;11.08;100.00
30421;BME280;17218;54.070;10.012;2023-11-19T12:12:07;100118.88;;;11.14;100.00
30421;BME280;17218;54.070;10.012;2023-11-19T12:15:00;100125.22;;;10.97;100.00
30421;BME280;17218;54.070;10.012;2023-11-19T12:17:47;100127.09;;;10.89;100.00
30421;BME280;17218;54.070;10.012;2023-11-19T12:20:19;100121.91;;;10.91;100.00
30421;BME280;17218;54.070;10.012;2023-11-19T12:22:47;100130.72;;;11.26;100.00
30421;BME280;17218;54.070;10.012;2023-11-19T12:25:15;100119.81;;;11.53;100.00
30421;BME280;17218;54.070;10.012;2023-11-19T12:27:44;100122.53;;;11.48;100.00
30421;BME280;17218;54.070;10.012;2023-11-19T12:30:11;100108.88;;;11.38;100.00
30421;BME280;17218;54.070;10.012;2023-11-19T12:32:39;100116.13;;;11.22;100.00
30421;BME280;17218;54.070;10.012;2023-11-19T12:35:06;100117.13;;;11.15;100.00
30421;BME280;17218;54.070;10.012;2023-11-19T12:37:40;100103.56;;;11.02;100.00
30421;BME280;17218;54.070;10.012;2023-11-19T12:40:14;100118.97;;;11.08;100.00
30421;BME280;17218;54.070;10.012;2023-11-19T12:42:41;100130.28;;;11.05;100.00